Weather reports worldwide

Advertisment
Kinbrace, United Kingdom (99016): temperature & dewpoint: 12.01.2018 13:00:00 - 18.01.2018 13:00:00 (GMT)Kinbrace, United Kingdom (99016): wind speed & gusts: 12.01.2018 13:00:00 - 18.01.2018 13:00:00 (GMT)Kinbrace, United Kingdom (99016): wind direction: 12.01.2018 13:00:00 - 18.01.2018 13:00:00 (GMT)Kinbrace, United Kingdom (99016): precipitation: 12.01.2018 13:00:00 - 18.01.2018 13:00:00 (GMT)
Date & Time tt [°C] td [°C] ff [km/h] ff [kn] fx [km/h] fx [kn] dd rr [mm]
18.01.2018 13:00:00 0,0 -1,2 13 7 - - SSW 0,0
18.01.2018 12:00:00 -0,5 -1,1 5 3 - - SSW 0,0
18.01.2018 11:00:00 0,2 -0,1 4 2 - - NNW 0,0
18.01.2018 10:00:00 -1,8 -2,3 4 2 - - WNW 0,0
18.01.2018 09:00:00 -4,6 -5,6 5 3 - - SSW 0,0
18.01.2018 08:00:00 -2,6 -3,1 2 1 - - E 0,0
18.01.2018 07:00:00 -0,1 -0,3 8 4 - - W 0,0
18.01.2018 06:00:00 -3,4 -4,1 5 3 - - NNW 0,0
18.01.2018 05:00:00 -0,6 -1,3 4 2 - - NNE 0,0
18.01.2018 04:00:00 0,4 -0,6 11 6 - - WNW 0,0
18.01.2018 03:00:00 -0,2 -1,7 9 5 - - WSW 0,0
18.01.2018 02:00:00 -1,3 -2,5 4 2 - - NNE 0,0
18.01.2018 01:00:00 -1,7 -3,4 4 2 - - NNW 0,0
18.01.2018 00:00:00 -0,5 -2,2 8 4 - - N 0,0
17.01.2018 23:00:00 0,3 -1,0 15 8 - - WSW 0,0
17.01.2018 22:00:00 0,4 -0,7 15 8 - - W 0,0
17.01.2018 21:00:00 -0,2 -1,3 9 5 - - S 0,0
17.01.2018 20:00:00 0,0 -0,8 2 1 - - S 0,0
17.01.2018 19:00:00 0,2 -1,3 5 3 - - WSW 0,0
17.01.2018 18:00:00 1,0 -0,5 8 4 - - WSW 0,2
17.01.2018 17:00:00 0,7 -0,3 11 6 - - NW 0,4
17.01.2018 16:00:00 0,6 0,1 8 4 - - W 0,4
17.01.2018 15:00:00 0,6 -0,1 13 7 - - NW 1,0
17.01.2018 14:00:00 1,2 -0,3 29 16 - - WNW 1,4
17.01.2018 13:00:00 1,1 0,1 21 11 48 26 WNW 4,4
17.01.2018 12:00:00 2,2 -1,2 31 17 48 26 W 0,0
17.01.2018 11:00:00 2,0 -0,8 16 9 - - WNW 0,0
17.01.2018 10:00:00 1,8 -0,3 22 12 - - WNW 0,0
17.01.2018 09:00:00 1,1 0,2 13 7 - - WNW 0,0
17.01.2018 08:00:00 0,5 -0,4 21 11 - - WNW 0,0
17.01.2018 07:00:00 0,1 -1,0 26 14 48 26 WNW 0,0
17.01.2018 06:00:00 0,1 -0,4 35 19 57 31 WNW 0,0
17.01.2018 05:00:00 0,2 -0,2 26 14 46 25 WNW 0,0
17.01.2018 04:00:00 0,3 -0,1 26 14 - - WNW 0,0
17.01.2018 03:00:00 -0,9 -1,9 9 5 - - SW 0,0
17.01.2018 02:00:00 -1,8 -2,9 8 4 - - SW 0,0
17.01.2018 01:00:00 -1,6 -2,3 11 6 - - SW 0,0
17.01.2018 00:00:00 -1,7 -2,4 13 7 - - WSW 0,0
16.01.2018 23:00:00 -2,0 -4,3 11 6 - - SSW 0,0
16.01.2018 22:00:00 -1,8 -3,3 5 3 - - SSW 0,0
16.01.2018 21:00:00 -2,3 -3,4 9 5 - - SSW 0,0
16.01.2018 20:00:00 -2,1 -3,0 15 8 - - SSW 0,0
16.01.2018 19:00:00 -2,0 -3,5 5 3 - - SSW 0,0
16.01.2018 18:00:00 -2,2 -3,8 4 2 - - SSW 0,0
16.01.2018 17:00:00 -1,2 -2,1 16 9 - - SW 0,0
16.01.2018 16:00:00 -1,4 -2,2 9 5 - - SSW 0,0
16.01.2018 15:00:00 -1,1 -2,3 8 4 - - SSW 0,0
16.01.2018 14:00:00 -0,8 -1,5 8 4 - - SW 0,0
16.01.2018 13:00:00 -0,6 -1,6 9 5 - - SSW 0,0
16.01.2018 12:00:00 -0,5 -1,4 15 8 - - SW 0,0
16.01.2018 11:00:00 -0,8 -1,5 13 7 - - SW 0,0
16.01.2018 10:00:00 -0,4 -1,0 15 8 - - SSW 0,0
16.01.2018 09:00:00 -1,0 -2,0 11 6 - - SSW 0,0
16.01.2018 08:00:00 -1,1 -2,0 11 6 - - SW 0,0
16.01.2018 07:00:00 -1,2 -2,1 11 6 - - SSW 0,0
16.01.2018 06:00:00 -0,1 -0,6 13 7 - - SW 0,0
16.01.2018 05:00:00 -0,5 -1,2 8 4 - - S 0,0
16.01.2018 04:00:00 -1,1 -2,1 8 4 - - SW 0,0
16.01.2018 03:00:00 -0,4 -1,0 11 6 - - WSW 0,0
16.01.2018 02:00:00 -0,4 -1,0 13 7 - - SW 0,0
16.01.2018 01:00:00 -1,0 -1,8 8 4 - - SSW 0,0
16.01.2018 00:00:00 -0,7 -1,7 4 2 - - SW 0,0
15.01.2018 23:00:00 0,3 -0,6 8 4 - - SSW 0,0
15.01.2018 22:00:00 0,2 -0,6 4 2 - - WSW 0,2
15.01.2018 21:00:00 0,4 -0,1 9 5 - - SSW 0,0
15.01.2018 20:00:00 0,5 -0,2 16 9 - - SW 0,0
15.01.2018 19:00:00 0,8 0,1 16 9 - - SSW 0,2
15.01.2018 18:00:00 0,7 0,1 5 3 - - SW 0,2
15.01.2018 17:00:00 1,3 0,0 9 5 - - SSW 0,0
15.01.2018 16:00:00 1,5 0,4 15 8 - - SW 0,0
15.01.2018 15:00:00 1,2 0,1 11 6 - - SW 0,6
15.01.2018 14:00:00 2,5 0,7 9 5 - - SSW 0,0
15.01.2018 13:00:00 3,1 1,5 13 7 - - WSW 0,2
15.01.2018 12:00:00 3,2 1,9 9 5 - - WSW 0,2
15.01.2018 11:00:00 3,1 1,3 15 8 - - SW 0,0
15.01.2018 10:00:00 3,2 1,4 8 4 - - SE 0,0
15.01.2018 09:00:00 2,6 1,1 11 6 - - SSW 0,2
15.01.2018 08:00:00 3,0 1,1 4 2 - - S 0,4
15.01.2018 07:00:00 3,7 1,7 9 5 - - W 0,2
15.01.2018 06:00:00 3,8 2,2 9 5 - - SW 0,0
15.01.2018 05:00:00 3,7 1,9 9 5 - - SSE 0,0
15.01.2018 04:00:00 4,0 2,2 9 5 - - SSE 0,0
15.01.2018 03:00:00 4,8 3,5 13 7 - - WSW 0,0
15.01.2018 02:00:00 5,9 4,3 13 7 - - SW 0,0
15.01.2018 01:00:00 5,5 4,6 15 8 - - S 0,4
15.01.2018 00:00:00 5,4 4,4 16 9 - - S 0,2
14.01.2018 23:00:00 5,8 3,9 37 20 57 31 S 0,0
14.01.2018 22:00:00 5,4 3,3 41 22 68 37 S 0,2
14.01.2018 21:00:00 5,0 3,1 41 22 63 34 S 0,0
14.01.2018 20:00:00 4,8 2,6 41 22 68 37 S 0,0
14.01.2018 19:00:00 5,1 2,7 48 26 70 38 S 0,2
14.01.2018 18:00:00 4,9 3,2 52 28 72 39 S 0,4
14.01.2018 17:00:00 6,5 2,1 50 27 76 41 S 0,0
14.01.2018 16:00:00 7,0 2,4 46 25 68 37 S 0,0
14.01.2018 15:00:00 6,6 2,0 41 22 65 35 S 0,0
14.01.2018 14:00:00 6,4 2,0 39 21 59 32 SSE 0,0
14.01.2018 13:00:00 6,2 2,1 44 24 59 32 SSE 0,0
14.01.2018 12:00:00 6,1 2,5 42 23 61 33 SSE 0,0
14.01.2018 11:00:00 6,0 2,4 41 22 54 29 SSE 0,0
14.01.2018 10:00:00 5,3 2,3 35 19 55 30 SSE 0,0
14.01.2018 09:00:00 5,1 2,5 37 20 55 30 SSE 0,0
14.01.2018 08:00:00 5,0 2,5 37 20 54 29 SSE 0,0
14.01.2018 07:00:00 4,8 2,6 39 21 57 31 SSE 0,0
14.01.2018 06:00:00 4,6 2,2 35 19 54 29 SSE 0,0
14.01.2018 05:00:00 5,0 2,3 28 15 46 25 SE 0,0
14.01.2018 04:00:00 5,0 2,3 34 18 46 25 SE 0,0
14.01.2018 03:00:00 4,8 2,2 37 20 50 27 SSE 0,0
14.01.2018 02:00:00 4,8 2,3 26 14 - - SSE -
14.01.2018 01:00:00 4,6 1,9 28 15 50 27 SSE 0,0
14.01.2018 00:00:00 4,9 2,3 34 18 48 26 SSE 0,0
13.01.2018 23:00:00 4,8 2,3 29 16 - - SSE 0,0
13.01.2018 22:00:00 5,1 2,0 34 18 - - SSE 0,0
13.01.2018 21:00:00 5,1 1,7 26 14 - - SE 0,0
13.01.2018 20:00:00 5,0 1,6 29 16 48 26 SSE 0,0
13.01.2018 19:00:00 4,4 1,2 18 10 - - SE 0,0
13.01.2018 18:00:00 4,8 1,4 26 14 - - SE 0,0
13.01.2018 17:00:00 4,7 1,3 28 15 - - SE 0,0
13.01.2018 16:00:00 4,8 1,0 26 14 46 25 SSE 0,0
13.01.2018 15:00:00 5,4 1,0 29 16 - - SSE 0,0
13.01.2018 14:00:00 5,7 1,0 21 11 - - SE 0,0
13.01.2018 13:00:00 5,6 1,3 28 15 - - SE 0,0
13.01.2018 12:00:00 5,4 1,7 22 12 55 30 SE 0,0
13.01.2018 11:00:00 5,3 1,9 34 18 48 26 ESE 0,0
13.01.2018 10:00:00 4,9 2,2 28 15 - - SE 0,0
13.01.2018 09:00:00 4,6 1,9 24 13 - - SE 0,0
13.01.2018 08:00:00 4,3 0,9 26 14 - - SE 0,0
13.01.2018 07:00:00 4,4 0,7 31 17 46 25 SE 0,0
13.01.2018 06:00:00 3,8 0,2 35 19 48 26 SSE 0,0
13.01.2018 05:00:00 4,2 0,2 31 17 50 27 SSE 0,0
13.01.2018 04:00:00 4,5 0,3 26 14 54 29 SE 0,0
13.01.2018 03:00:00 4,6 0,6 29 16 54 29 SE 0,0
13.01.2018 02:00:00 4,5 0,4 44 24 67 36 SSE 0,0
13.01.2018 01:00:00 4,2 0,4 39 21 55 30 SE 0,0
13.01.2018 00:00:00 4,4 0,6 44 24 59 32 SSE 0,0
12.01.2018 23:00:00 4,7 1,5 35 19 54 29 SE 0,0
12.01.2018 22:00:00 5,1 1,7 37 20 54 29 SSE 0,0
12.01.2018 21:00:00 5,0 1,8 26 14 52 28 SE 0,0
12.01.2018 20:00:00 5,2 1,4 29 16 52 28 SSE 0,0
12.01.2018 19:00:00 5,1 1,5 29 16 - - SE 0,0
12.01.2018 18:00:00 5,0 1,5 24 13 50 27 SE 0,0
12.01.2018 17:00:00 4,7 1,8 24 13 - - SE 0,0
12.01.2018 16:00:00 4,9 1,8 26 14 - - SE 0,0
12.01.2018 15:00:00 5,7 2,1 29 16 - - SSE 0,0
12.01.2018 14:00:00 5,9 3,5 28 15 46 25 SE 0,0
12.01.2018 13:00:00 - - - - - - - 0,0

tt = temperature
td = dewpoint
ff = wind speed
fx = gusts
dd = wind direction
rr = precipitation

Next stations